Cedar City, UT

9:18 AM MST on March 04, 2015 (GMT -0700)
Bryce Canyon | Change Station
CLOSE
Current Station
Airport
Location: Bryce Canyon,
Elevation: 7585 ft
Nearby Weather Stations

Elev 7585 ft 37.71 °N, 112.15 °W | Updated 25 minutes ago

Clear
Clear
5 °F
Feels Like -2 °F
N
4
Wind Variable Wind from WNW

Today
High -- | Low -- °F
--% Chance of Precip.
Yesterday
High -- | Low -- °F
Precip. -- in
6:59 AM 6:29 PM
Waxing Gibbous, 99% visible
Pressure 30.18 in
Visibility 10.0 miles
Clouds Clear
Windchill -2 °F
Dew Point 2 °F
Humidity 87%
Rainfall 0.00 in
Snow Depth Not available.
UV 2 out of 12
Pollen 3.70 out of 12
Air Quality Not available.
Flu Activity Not available.
METAR KBCE 041553Z AUTO 29003KT 10SM CLR M15/M17 A3005 RMK AO2 SLP218 T11501167

More Conditions Fewer Conditions

Pressure 30.18 in
Visibility 10.0 miles
Clouds Clear
Windchill -2 °F
Dew Point 2 °F
Humidity 87%
Rainfall 0.00 in
Snow Depth Not available.
UV 2 out of 12
Pollen 3.70 out of 12
Air Quality Not available.
Flu Activity Not available.
METAR KBCE 041553Z AUTO 29003KT 10SM CLR M15/M17 A3005 RMK AO2 SLP218 T11501167

More Conditions Fewer Conditions

10-Day Weather Forecast

Almanac

Astronomy

Mar. 04, 2015 Rise Set
Actual Time
Civil Twilight
Nautical Twilight
Astronomical Twilight
Moon
Length of Visible Light
Length of Day
Tomorrow will be .
, % of the Moon is Illuminated

Today's Extremes

State Highs State Lows

Community

WunderPhotos

Upload Photos

1,802,500 photos uploaded!

WunderBlogs® & News

Nearby

Air Quality

  Air Quality AQ Index Pollutant
Not available.

Snow Depth

Station Depth Elevation

Earthquake Activity

City Distance Mag. Time & Date
Minimum magnitude displayed is 2.5.

Coastal Water Temperatures

Place Temperature

Nearby Weather Stations